Towanda, Pennsylvania
Current Conditions -  °F | °C
As of 3:53 PM on Thursday 27 Nov 2014 (Local Time) from KELM Reporting Station
Broken Clouds Broken Clouds  
Wind Chill: 33°   Ceiling: 5500
Heat Index: 33°   Visibility: 10mi
Dew Point: 20°   Wind: 3mph
Humidity: 59%   Direction: NA
Pressure: 30.02"   Gusts: NA
Location:  41.77°N, 76.44°W
Report Text: KELM 272053Z VRB03KT 10SM SCT047 BKN055 01/M07 A3002 RMK AO2 SLP176 T00061067 53005
Loading
Personal Weather Stations






























Interactive Weather Map New forecast layout! Learn more

10-Day Weather Forecast

Advertisements
Track Severe Weather on mobile